Time;durP1;ratioP1;P1;durP2;ratioP2;P2;SDS_P1;SDS_P2;PMS_P1;PMS_P2;Temp;Humidity;BMP_temperature;BMP_pressure;BME280_temperature;BME280_humidity;BME280_pressure;Samples;Min_cycle;Max_cycle;Signal;HPM_P1;HPM_P2
2022/05/16 00:03:09;;;;;;;4.18;1.35;;;17.40;38.50;;;15.32;41.19;101706.22;12236874;19;20546;-77
2022/05/16 00:07:13;;;;;;;1.17;1.02;;;17.40;38.60;;;15.11;41.60;101683.81;12236244;19;20006;-77
2022/05/16 00:11:14;;;;;;;2.33;1.13;;;17.30;38.60;;;15.17;41.38;101707.97;12238936;19;20015;-77
2022/05/16 00:15:19;;;;;;;1.52;1.15;;;17.30;38.70;;;15.16;41.63;101719.44;12233021;19;20018;-77
2022/05/16 00:19:21;;;;;;;;;;;17.30;38.70;;;15.11;40.76;101702.22;12238292;19;20362;-77
2022/05/16 00:23:23;;;;;;;1.33;0.95;;;17.20;38.10;;;15.06;41.35;101715.63;12233005;19;19925;-77
2022/05/16 00:27:25;;;;;;;1.95;0.70;;;17.00;38.50;;;14.88;41.62;101691.28;12234306;19;20077;-77
2022/05/16 00:31:28;;;;;;;1.17;1.00;;;17.00;38.80;;;14.84;41.65;101695.00;12236680;19;20018;-77
2022/05/16 00:35:29;;;;;;;1.92;0.90;;;17.30;38.90;;;14.73;41.94;101684.25;12235185;19;20373;-77
2022/05/16 00:39:32;;;;;;;2.05;0.98;;;17.00;38.90;;;14.78;42.01;101695.34;12235523;19;20030;-77
2022/05/16 00:43:58;;;;;;;1.15;1.00;;;16.80;38.90;;;14.72;42.36;101690.47;12235357;19;20006;-77
2022/05/16 00:48:00;;;;;;;1.45;0.98;;;16.80;39.40;;;14.70;42.13;101697.56;12231604;19;20015;-77
2022/05/16 00:52:15;;;;;;;2.90;1.10;;;16.80;39.30;;;14.68;42.54;101689.75;12235397;19;20378;-77
2022/05/16 00:56:18;;;;;;;2.38;1.42;;;16.80;39.40;;;14.66;42.20;101696.03;12234761;19;20015;-76
2022/05/16 01:00:26;;;;;;;1.90;0.90;;;16.80;39.30;;;14.52;42.54;101679.25;12233466;19;20018;-76
2022/05/16 01:08:48;;;;;;;3.10;1.55;;;16.70;39.40;;;14.68;42.38;101696.81;12241676;19;20399;-77
2022/05/16 01:12:53;;;;;;;1.30;0.93;;;16.60;39.40;;;14.69;42.56;101694.09;12241144;19;20499;-77
2022/05/16 01:16:55;;;;;;;1.77;1.10;;;16.80;39.70;;;14.55;42.36;101668.56;12244691;19;20019;-77
2022/05/16 01:21:27;;;;;;;2.80;1.52;;;16.70;39.50;;;14.74;42.69;101709.59;12247334;19;20010;-77
2022/05/16 01:25:29;;;;;;;1.85;1.20;;;16.70;39.70;;;14.63;42.63;101701.47;12246572;19;20011;-77
2022/05/16 01:29:31;;;;;;;2.13;1.20;;;16.70;39.50;;;14.59;42.70;101711.31;12244694;19;20452;-77
2022/05/16 01:33:33;;;;;;;2.28;1.02;;;16.70;39.50;;;14.28;42.71;101664.84;12244848;19;20377;-77
2022/05/16 01:41:55;;;;;;;2.45;1.42;;;16.60;39.50;;;14.42;42.88;101703.50;12238814;19;20015;-77
2022/05/16 01:45:57;;;;;;;2.00;1.05;;;16.50;39.60;;;14.41;42.77;101702.66;12245974;19;20014;-76
2022/05/16 01:49:59;;;;;;;2.50;1.20;;;16.50;39.70;;;14.28;42.99;101683.22;12246117;19;20018;-77
2022/05/16 01:54:03;;;;;;;1.95;1.02;;;16.40;39.70;;;14.23;43.16;101674.75;12244606;19;20472;-77
2022/05/16 01:58:06;;;;;;;1.92;1.27;;;16.40;39.90;;;14.20;43.23;101683.66;12244690;19;20474;-77
2022/05/16 02:02:07;;;;;;;1.50;1.05;;;16.40;39.90;;;13.99;43.26;101659.44;12241646;19;20018;-77
2022/05/16 02:06:10;;;;;;;2.30;1.70;;;16.20;39.80;;;14.10;43.30;101670.19;12242724;19;20014;-77
2022/05/16 02:10:15;;;;;;;0.93;0.90;;;16.10;40.20;;;13.99;43.44;101655.94;12245934;19;20389;-77
2022/05/16 02:14:17;;;;;;;3.78;1.40;;;16.20;39.90;;;14.10;43.34;101678.06;12240688;19;20014;-77
2022/05/16 02:18:19;;;;;;;3.30;1.50;;;16.20;40.00;;;14.09;43.36;101670.28;12244924;19;20025;-77
2022/05/16 02:26:46;;;;;;;1.30;0.98;;;16.20;40.20;;;13.93;43.62;101658.00;12241437;19;20019;-77
2022/05/16 02:30:49;;;;;;;2.00;1.23;;;16.10;40.00;;;13.88;43.65;101665.28;12245773;19;20015;-77
2022/05/16 02:34:51;;;;;;;3.42;0.93;;;16.10;40.10;;;13.86;43.60;101659.25;12239768;19;20073;-77
2022/05/16 02:38:52;;;;;;;3.17;1.27;;;16.00;40.10;;;13.92;43.63;101664.16;12240794;19;20018;-77
2022/05/16 02:42:54;;;;;;;2.72;1.20;;;15.90;40.10;;;13.80;43.51;101642.97;12241909;19;20019;-77
2022/05/16 02:46:56;;;;;;;1.58;1.20;;;16.00;40.20;;;13.85;43.77;101646.19;12238902;19;20006;-77
2022/05/16 02:50:58;;;;;;;3.17;1.52;;;16.00;40.20;;;13.85;43.85;101649.69;12240792;19;20403;-77
2022/05/16 02:55:02;;;;;;;2.22;1.40;;;16.00;40.30;;;13.85;43.83;101647.06;12240764;19;20351;-77
2022/05/16 02:59:04;;;;;;;2.05;1.30;;;15.90;40.20;;;13.89;43.91;101656.44;12241996;19;20015;-77
2022/05/16 03:03:05;;;;;;;2.20;1.20;;;16.00;40.30;;;13.83;43.92;101638.41;12238480;19;20014;-77
2022/05/16 03:07:07;;;;;;;1.02;0.93;;;16.00;40.40;;;13.88;43.98;101635.50;12233500;19;20101;-77
2022/05/16 03:11:09;;;;;;;1.48;0.93;;;16.00;40.40;;;13.83;44.00;101640.19;12232692;19;20480;-77
2022/05/16 03:15:12;;;;;;;2.00;1.33;;;15.90;40.30;;;13.66;43.95;101625.31;12234605;19;20468;-78
2022/05/16 03:19:14;;;;;;;1.88;1.17;;;15.90;40.40;;;13.57;44.14;101621.44;12233421;19;20014;-77
2022/05/16 03:23:15;;;;;;;3.45;1.30;;;15.80;40.40;;;13.57;44.17;101631.09;12228544;19;20019;-77
2022/05/16 03:27:17;;;;;;;3.88;1.50;;;15.70;40.40;;;13.44;44.34;101615.13;12233835;19;20014;-77
2022/05/16 03:31:19;;;;;;;1.67;1.05;;;15.60;40.40;;;13.50;44.47;101646.28;12237614;19;20006;-77
2022/05/16 03:35:21;;;;;;;1.85;1.27;;;15.50;40.50;;;13.23;44.47;101596.97;12236163;19;20018;-77
2022/05/16 03:43:43;;;;;;;1.08;0.90;;;15.60;40.70;;;13.30;44.63;101628.97;12238985;19;20096;-76
2022/05/16 03:47:45;;;;;;;4.00;1.15;;;15.50;40.80;;;13.32;44.53;101631.53;12237454;19;20031;-77
2022/05/16 03:51:47;;;;;;;4.10;1.35;;;15.50;40.80;;;13.38;44.61;101636.44;12237605;19;20024;-77
2022/05/16 03:55:49;;;;;;;1.65;1.13;;;15.40;40.80;;;13.34;44.64;101627.03;12241497;19;20070;-77
2022/05/16 03:59:50;;;;;;;1.52;1.30;;;15.50;41.00;;;13.21;44.74;101605.84;12239151;19;20031;-77
2022/05/16 04:03:52;;;;;;;2.90;1.02;;;15.30;40.90;;;13.14;44.64;101596.56;12239602;19;20014;-77
2022/05/16 04:07:54;;;;;;;2.67;1.35;;;15.50;40.90;;;13.22;44.81;101621.47;12236491;19;20026;-77
2022/05/16 04:11:55;;;;;;;2.28;1.27;;;15.50;41.10;;;12.95;44.84;101565.22;12241143;19;20018;-77
2022/05/16 04:15:57;;;;;;;1.55;1.00;;;15.50;41.10;;;13.38;45.00;101636.44;12240702;19;20031;-77
2022/05/16 04:19:59;;;;;;;1.15;1.00;;;15.50;41.20;;;13.20;44.95;101591.84;12239317;19;20007;-77
2022/05/16 04:24:01;;;;;;;2.50;1.00;;;15.40;41.20;;;13.31;44.93;101609.69;12237023;19;20013;-77
2022/05/16 04:28:11;;;;;;;1.73;1.15;;;15.50;41.30;;;13.01;45.39;101570.97;12236434;19;20015;-77
2022/05/16 04:32:13;;;;;;;2.67;1.38;;;15.50;41.30;;;13.44;45.14;101639.59;12239135;19;20356;-77
2022/05/16 04:36:15;;;;;;;2.45;1.20;;;15.50;41.30;;;13.33;45.07;101609.59;12244701;19;20029;-77
2022/05/16 04:40:17;;;;;;;1.52;1.25;;;15.50;41.40;;;13.30;44.88;101599.28;12252020;19;20003;-77
2022/05/16 04:44:18;;;;;;;2.10;1.50;;;15.50;41.20;;;13.51;45.08;101634.88;12244759;19;20487;-77
2022/05/16 04:48:20;;;;;;;3.33;1.38;;;15.60;41.30;;;13.55;44.97;101633.78;12245604;19;20011;-77
2022/05/16 04:52:22;;;;;;;2.72;1.27;;;15.60;41.20;;;13.72;45.00;101638.16;12245637;19;20027;-77
2022/05/16 04:56:23;;;;;;;2.05;1.30;;;15.70;41.20;;;13.65;44.93;101611.38;12251033;19;20022;-77
2022/05/16 05:00:26;;;;;;;2.83;1.60;;;15.70;41.20;;;13.76;45.08;101613.41;12249416;19;20042;-78
2022/05/16 05:04:28;;;;;;;2.08;1.30;;;15.80;41.20;;;14.03;44.92;101624.19;12247925;19;20014;-77
2022/05/16 05:08:30;;;;;;;2.67;1.30;;;15.90;41.10;;;14.12;44.86;101621.06;12243631;19;20017;-77
2022/05/16 05:16:52;;;;;;;2.38;1.10;;;16.10;41.20;;;14.36;45.09;101616.19;12247638;19;20490;-77
2022/05/16 05:20:54;;;;;;;4.20;1.27;;;16.20;41.00;;;14.55;44.78;101608.13;12248728;19;20039;-77
2022/05/16 05:24:56;;;;;;;2.38;1.15;;;16.40;41.20;;;14.58;44.79;101593.94;12244976;19;20018;-77
2022/05/16 05:28:57;;;;;;;3.45;1.77;;;16.50;41.00;;;14.67;44.85;101592.59;12246505;19;20077;-77
2022/05/16 05:32:59;;;;;;;2.60;1.20;;;16.50;41.10;;;14.85;44.67;101603.78;12247765;19;20018;-77
2022/05/16 05:37:01;;;;;;;2.15;1.10;;;16.80;40.80;;;14.95;44.70;101603.16;12246333;19;20052;-77
2022/05/16 05:41:04;;;;;;;2.55;1.08;;;16.90;40.80;;;15.16;44.59;101608.09;12247963;19;20582;-77
2022/05/16 05:45:09;;;;;;;2.70;1.08;;;17.10;40.90;;;15.43;44.70;101616.09;12241508;19;20342;-78
2022/05/16 05:49:12;;;;;;;9.70;1.60;;;17.20;41.10;;;15.59;44.58;101592.28;12242809;19;20023;-78
2022/05/16 05:53:13;;;;;;;2.90;1.40;;;17.20;41.00;;;16.01;44.46;101614.25;12245969;19;20445;-79
2022/05/16 05:57:16;;;;;;;0.85;0.85;;;17.60;41.10;;;16.20;44.62;101625.28;12249147;19;20006;-79
2022/05/16 06:01:18;;;;;;;3.20;1.48;;;17.90;41.20;;;16.36;44.25;101625.16;12245920;19;20019;-78
2022/05/16 06:05:22;;;;;;;2.13;1.20;;;18.10;40.70;;;16.49;44.10;101589.13;12240788;19;20014;-78
2022/05/16 06:09:24;;;;;;;6.30;1.38;;;18.30;40.40;;;16.88;43.98;101624.38;12243660;19;20007;-79
2022/05/16 06:13:26;;;;;;;4.53;1.60;;;18.50;40.30;;;16.85;43.90;101584.16;12242067;19;20471;-79
2022/05/16 06:17:28;;;;;;;1.75;1.17;;;18.70;40.00;;;17.20;43.68;101616.91;12242655;19;20010;-78
2022/05/16 06:21:32;;;;;;;1.88;1.25;;;18.80;40.00;;;16.83;43.95;101528.88;12243798;19;20139;-78
2022/05/16 06:25:34;;;;;;;1.20;1.10;;;19.10;40.00;;;17.28;43.54;101583.84;12243458;19;20050;-78
2022/05/16 06:29:36;;;;;;;4.72;1.83;;;19.40;39.80;;;17.57;43.63;101618.78;12243298;19;20017;-78
2022/05/16 06:33:37;;;;;;;2.65;0.90;;;19.40;39.70;;;17.67;43.33;101612.72;12242107;19;20735;-79
2022/05/16 06:37:39;;;;;;;2.75;1.15;;;19.50;39.50;;;17.61;43.31;101589.41;12245251;19;20018;-78
2022/05/16 06:41:42;;;;;;;2.63;1.73;;;19.60;39.50;;;17.83;43.30;101609.03;12242381;19;20017;-77
2022/05/16 06:45:44;;;;;;;2.63;1.48;;;19.70;39.20;;;17.86;43.26;101603.53;12241654;19;20010;-82
2022/05/16 06:49:46;;;;;;;2.78;1.27;;;19.70;39.00;;;17.96;43.07;101593.13;12241955;19;20353;-81
2022/05/16 06:53:48;;;;;;;2.30;1.15;;;19.80;39.10;;;18.07;42.92;101593.22;12241614;19;20460;-79
2022/05/16 06:57:50;;;;;;;5.18;1.20;;;20.00;38.90;;;18.37;42.95;101621.84;12238263;19;20014;-79
2022/05/16 07:01:52;;;;;;;1.98;1.30;;;20.10;38.80;;;18.35;42.94;101594.66;12242216;19;20059;-79
2022/05/16 07:05:55;;;;;;;2.35;1.05;;;20.10;38.80;;;18.61;42.70;101620.97;12239828;19;20427;-79
2022/05/16 07:09:57;;;;;;;1.35;1.10;;;20.40;38.80;;;18.68;42.63;101599.22;12241378;19;20021;-79
2022/05/16 07:13:59;;;;;;;3.25;1.05;;;20.40;38.70;;;18.96;42.77;101632.41;12239968;19;20559;-79
2022/05/16 07:18:01;;;;;;;1.70;1.20;;;20.70;38.60;;;19.07;42.50;101612.22;12242258;19;20069;-79
2022/05/16 07:22:11;;;;;;;3.10;1.40;;;20.80;38.70;;;19.27;42.48;101605.38;12241743;19;20043;-79
2022/05/16 07:30:35;;;;;;;3.70;1.25;;;21.20;38.20;;;19.56;42.04;101593.34;12239281;19;20039;-80
2022/05/16 07:34:39;;;;;;;1.60;1.00;;;21.30;38.10;;;19.92;41.82;101609.09;12238787;19;20010;-80
2022/05/16 07:38:41;;;;;;;1.67;1.05;;;21.50;38.10;;;20.10;41.63;101591.69;12239483;19;20007;-80
2022/05/16 07:42:42;;;;;;;2.65;1.27;;;21.70;38.00;;;20.43;41.83;101608.44;12239415;19;20365;-79
2022/05/16 07:46:44;;;;;;;6.03;1.88;;;21.90;37.90;;;20.64;41.15;101595.25;12237894;19;20089;-80
2022/05/16 07:50:48;;;;;;;3.55;1.33;;;22.10;37.60;;;20.68;41.43;101578.91;12241057;19;20054;-79
2022/05/16 07:54:50;;;;;;;13.40;2.80;;;22.40;37.50;;;20.96;40.88;101611.94;12236695;19;20007;-79
2022/05/16 07:58:51;;;;;;;2.90;1.50;;;22.50;37.10;;;20.89;40.75;101572.75;12236576;19;20018;-80
2022/05/16 08:02:53;;;;;;;4.03;1.23;;;22.70;37.20;;;21.16;40.71;101585.47;12235324;19;20010;-80
2022/05/16 08:06:54;;;;;;;1.40;1.23;;;22.90;37.00;;;21.54;40.71;101611.41;12238760;19;20015;-80
2022/05/16 08:10:58;;;;;;;2.80;1.02;;;23.10;37.20;;;21.76;40.43;101610.34;12253024;19;20007;-79
2022/05/16 08:15:00;;;;;;;3.00;1.52;;;23.20;36.90;;;22.06;40.07;101612.13;12256997;19;20369;-79
2022/05/16 08:19:02;;;;;;;3.55;1.10;;;23.50;36.60;;;22.20;40.27;101602.09;12264373;19;20026;-79
2022/05/16 08:23:04;;;;;;;2.25;1.20;;;23.70;36.50;;;22.34;40.13;101587.50;12261153;19;20353;-80
2022/05/16 08:27:07;;;;;;;3.35;1.30;;;23.90;36.30;;;22.50;39.92;101595.78;12260689;19;20074;-77
2022/05/16 08:31:09;;;;;;;2.35;1.17;;;24.10;35.90;;;22.61;39.48;101597.44;12262103;19;20099;-79
2022/05/16 08:35:13;;;;;;;1.98;1.33;;;24.30;35.90;;;22.63;39.45;101576.81;12258475;19;20017;-78
2022/05/16 08:44:03;;;;;;;1.48;1.15;;;24.50;35.80;;;23.12;39.00;101586.41;12249144;19;20014;-78
2022/05/16 08:48:27;;;;;;;1.48;1.27;;;24.60;35.80;;;23.35;39.11;101594.88;12251911;19;20026;-79
2022/05/16 08:53:16;;;;;;;4.22;1.35;;;24.80;35.60;;;23.62;38.64;101590.53;12253302;19;20021;-78
2022/05/16 08:57:31;;;;;;;2.47;1.10;;;25.10;35.40;;;23.60;38.73;101549.84;12255338;19;20015;-79
2022/05/16 09:01:43;;;;;;;2.30;1.30;;;25.20;35.10;;;23.73;38.24;101561.03;12255256;19;20015;-79
2022/05/16 09:05:54;;;;;;;3.78;1.48;;;25.50;35.10;;;23.87;38.28;101534.81;12258037;19;20018;-79
2022/05/16 09:10:23;;;;;;;4.30;2.17;;;25.60;34.60;;;24.12;37.71;101571.44;12262086;19;20014;-78
2022/05/16 09:14:51;;;;;;;1.70;0.93;;;25.80;34.80;;;24.15;37.77;101570.28;12259237;19;20011;-79
2022/05/16 09:19:19;;;;;;;2.90;1.27;;;25.80;34.60;;;24.24;37.75;101572.03;12253226;19;20017;-79
2022/05/16 09:24:07;;;;;;;1.10;0.98;;;25.90;34.50;;;24.41;37.92;101557.84;12246407;19;20006;-78
2022/05/16 09:32:36;;;;;;;1.48;0.90;;;26.10;34.40;;;24.79;36.97;101553.13;12246416;19;20022;-80
2022/05/16 09:36:42;;;;;;;1.75;1.38;;;26.30;34.10;;;24.83;36.90;101542.94;12246162;19;20388;-80
2022/05/16 09:40:59;;;;;;;2.78;1.23;;;26.40;33.90;;;25.01;36.67;101562.44;12247117;19;20069;-81
2022/05/16 09:45:13;;;;;;;1.60;1.00;;;26.60;34.10;;;25.06;36.82;101544.09;12217610;19;20021;-79
2022/05/16 09:49:26;;;;;;;2.28;1.20;;;26.70;33.60;;;24.97;35.97;101504.94;12232110;19;20024;-78
2022/05/16 09:53:45;;;;;;;5.03;1.23;;;26.80;33.30;;;25.15;36.08;101512.91;12228768;19;20011;-78
2022/05/16 09:57:53;;;;;;;2.25;0.95;;;26.90;33.30;;;25.28;35.95;101521.31;12232505;19;20018;-78
2022/05/16 10:02:23;;;;;;;3.10;0.98;;;27.10;32.90;;;25.41;35.20;101512.84;12230069;19;20790;-78
2022/05/16 10:06:36;;;;;;;2.03;1.05;;;27.00;32.80;;;25.63;35.55;101531.94;12228432;19;20018;-78
2022/05/16 10:10:42;;;;;;;1.25;0.90;;;27.00;32.70;;;25.67;35.62;101498.50;12232954;19;20643;-79
2022/05/16 10:14:43;;;;;;;2.70;1.30;;;27.30;33.10;;;25.95;35.33;101523.16;12227024;19;20024;-78
2022/05/16 10:18:51;;;;;;;1.50;1.40;;;27.20;32.70;;;26.08;35.10;101520.00;12228886;19;20021;-78
2022/05/16 10:22:59;;;;;;;3.47;0.80;;;27.50;32.50;;;26.19;34.42;101531.22;12228253;19;20023;-78
2022/05/16 10:27:07;;;;;;;2.58;0.98;;;27.70;32.30;;;26.02;34.68;101494.72;12227970;19;20503;-79
2022/05/16 10:35:47;;;;;;;1.65;1.23;;;27.70;32.00;;;26.29;33.92;101517.63;12228004;19;20021;-80
2022/05/16 10:40:03;;;;;;;1.48;1.05;;;27.90;31.80;;;26.25;33.98;101508.28;12227469;19;20023;-79
2022/05/16 10:44:43;;;;;;;1.52;1.42;;;27.90;31.80;;;26.33;33.79;101505.59;12228598;19;20086;-82
2022/05/16 10:49:02;;;;;;;2.45;1.85;;;27.90;31.80;;;26.27;33.59;101485.69;12226309;19;20010;-79
2022/05/16 10:53:27;;;;;;;2.10;1.70;;;28.00;31.60;;;26.42;33.50;101488.50;12228632;19;20022;-79
2022/05/16 10:58:18;;;;;;;2.40;1.85;;;28.00;31.70;;;26.47;33.42;101464.72;12225013;19;20053;-78
2022/05/16 11:02:44;;;;;;;3.92;1.95;;;28.00;31.50;;;26.61;33.38;101486.50;12227117;19;20042;-80
2022/05/16 11:07:01;;;;;;;3.92;1.98;;;28.10;31.00;;;26.55;32.58;101471.09;12227544;19;20018;-79
2022/05/16 11:11:25;;;;;;;3.03;2.72;;;28.20;31.10;;;26.49;32.67;101468.06;12230375;19;20086;-79
2022/05/16 11:15:34;;;;;;;5.53;3.10;;;28.00;30.70;;;26.51;32.44;101451.84;12224363;19;20029;-79
2022/05/16 11:19:56;;;;;;;4.82;2.90;;;28.20;30.80;;;26.58;32.30;101434.09;12226841;19;20521;-79
2022/05/16 11:24:09;;;;;;;4.90;3.13;;;28.20;30.60;;;26.81;32.08;101447.53;12227841;19;20077;-80
2022/05/16 11:33:41;;;;;;;3.72;3.00;;;28.40;30.80;;;27.13;31.82;101448.41;12226593;19;20096;-80
2022/05/16 11:38:21;;;;;;;3.78;3.00;;;28.40;30.50;;;27.20;31.85;101449.41;12225565;19;20011;-80
2022/05/16 11:42:50;;;;;;;4.38;2.85;;;28.70;30.40;;;27.28;31.91;101446.69;12227593;19;20034;-79
2022/05/16 11:47:19;;;;;;;4.97;3.00;;;28.70;30.50;;;27.19;31.43;101404.00;12224198;19;20431;-79
2022/05/16 11:52:03;;;;;;;5.18;3.15;;;28.90;30.50;;;27.44;31.56;101450.28;12224865;19;20018;-80
2022/05/16 12:00:32;;;;;;;7.35;3.45;;;29.10;30.00;;;27.30;31.34;101433.94;12226085;19;20010;-79
2022/05/16 12:05:12;;;;;;;3.05;2.55;;;28.90;29.80;;;27.26;31.30;101443.34;12216822;19;20019;-79
2022/05/16 12:09:31;;;;;;;6.10;2.97;;;28.90;30.00;;;27.25;31.30;101419.41;12218325;19;20014;-79
2022/05/16 12:13:37;;;;;;;4.90;3.15;;;28.90;30.00;;;27.31;30.97;101419.50;12219360;19;20407;-80
2022/05/16 12:17:54;;;;;;;3.78;3.35;;;29.00;30.00;;;27.32;30.74;101409.59;12219856;19;20015;-80
2022/05/16 12:22:05;;;;;;;3.17;2.75;;;28.80;29.80;;;27.49;30.53;101421.06;12220734;19;20022;-80
2022/05/16 12:26:09;;;;;;;13.82;3.08;;;28.90;29.80;;;27.52;30.33;101410.00;12221323;19;20023;-79
2022/05/16 12:30:22;;;;;;;4.05;2.90;;;29.00;29.70;;;27.73;30.45;101410.16;12218964;19;20406;-79
2022/05/16 12:34:29;;;;;;;3.28;2.80;;;29.10;29.70;;;27.80;30.48;101418.34;12218748;19;20018;-79
2022/05/16 12:38:31;;;;;;;2.42;2.15;;;29.10;29.40;;;27.80;30.31;101402.22;12220657;19;20010;-79
2022/05/16 12:42:58;;;;;;;3.95;3.22;;;29.30;29.50;;;27.91;29.74;101399.09;12218466;19;20018;-79
2022/05/16 12:47:41;;;;;;;4.60;2.25;;;29.40;29.40;;;27.92;29.67;101379.31;12216436;19;20011;-79
2022/05/16 12:51:59;;;;;;;3.20;2.40;;;29.40;29.30;;;28.04;29.28;101393.09;12217339;19;20027;-78
2022/05/16 12:56:28;;;;;;;2.28;1.98;;;29.50;28.80;;;27.94;29.28;101360.31;12219891;19;20779;-79
2022/05/16 13:00:51;;;;;;;2.90;1.65;;;29.60;29.00;;;27.94;29.21;101363.81;12228466;19;20484;-78
2022/05/16 13:05:32;;;;;;;2.88;1.55;;;29.50;28.80;;;27.98;29.26;101358.94;12222403;19;20266;-77
2022/05/16 13:09:45;;;;;;;2.90;1.52;;;29.60;28.80;;;27.95;28.90;101354.78;12231364;19;20019;-78
2022/05/16 13:14:21;;;;;;;2.35;1.90;;;29.50;28.40;;;28.02;28.98;101347.63;12227803;19;20067;-81
2022/05/16 13:18:31;;;;;;;2.15;1.30;;;29.50;28.90;;;28.15;28.51;101356.91;12231521;19;20015;-79
2022/05/16 13:22:33;;;;;;;1.85;1.40;;;29.50;28.70;;;28.15;28.62;101351.53;12231116;19;20073;-78
2022/05/16 13:31:02;;;;;;;3.35;1.45;;;29.70;28.60;;;28.18;28.40;101335.03;12228060;19;20039;-78
2022/05/16 13:35:13;;;;;;;2.92;1.67;;;29.60;28.40;;;28.03;28.13;101294.78;12226099;19;20051;-79
2022/05/16 13:39:15;;;;;;;2.67;1.55;;;29.80;28.30;;;28.08;28.09;101296.88;12230018;19;20022;-78
2022/05/16 13:43:27;;;;;;;2.45;1.40;;;29.70;28.50;;;28.34;27.50;101307.97;12227327;19;20034;-78
2022/05/16 13:47:32;;;;;;;2.17;1.55;;;29.90;28.10;;;28.33;27.67;101292.91;12223270;19;20018;-79
2022/05/16 13:51:57;;;;;;;2.05;1.30;;;29.80;28.10;;;28.42;27.76;101315.94;12229588;19;20449;-78
2022/05/16 13:55:59;;;;;;;3.03;1.50;;;30.30;28.40;;;28.46;27.85;101321.78;12226731;19;20468;-79
2022/05/16 14:00:14;;;;;;;1.95;1.02;;;29.90;28.20;;;28.49;27.48;101309.84;12227202;19;20049;-81
2022/05/16 14:04:21;;;;;;;3.33;1.33;;;30.00;28.10;;;28.42;27.95;101290.94;12223369;19;20014;-81
2022/05/16 14:08:45;;;;;;;1.35;1.08;;;30.00;28.20;;;28.32;27.39;101267.03;12222506;19;20022;-80
2022/05/16 14:12:55;;;;;;;3.42;1.05;;;30.00;28.30;;;28.53;27.54;101295.00;12224306;19;20042;-79
2022/05/16 14:17:02;;;;;;;1.58;1.00;;;29.90;27.90;;;28.43;27.24;101274.63;12225495;19;20026;-80
2022/05/16 14:21:20;;;;;;;3.38;1.40;;;30.00;27.80;;;28.54;26.94;101277.84;12222736;19;20022;-80
2022/05/16 14:25:40;;;;;;;2.03;1.70;;;29.90;27.90;;;28.60;26.72;101285.19;12203313;19;20097;-80
2022/05/16 14:29:57;;;;;;;1.88;1.00;;;30.10;28.00;;;28.53;26.81;101246.63;12221681;19;20011;-80
2022/05/16 14:34:18;;;;;;;1.23;1.13;;;30.00;27.80;;;28.75;26.74;101266.31;12221653;19;20046;-80
2022/05/16 14:38:19;;;;;;;2.67;1.05;;;30.30;27.70;;;28.68;26.86;101260.88;12222412;19;20031;-80
2022/05/16 14:42:22;;;;;;;2.42;1.50;;;30.00;27.60;;;28.76;26.70;101270.63;12223105;19;20111;-80
2022/05/16 14:46:43;;;;;;;1.60;1.08;;;30.10;27.50;;;28.62;26.37;101248.16;12219970;19;20028;-79
2022/05/16 14:50:47;;;;;;;1.83;1.05;;;30.10;27.40;;;28.44;26.42;101238.69;12224141;19;20033;-80
2022/05/16 14:55:11;;;;;;;2.50;1.07;;;30.10;27.50;;;28.51;26.72;101265.63;12216197;19;20043;-81
2022/05/16 14:59:13;;;;;;;3.85;0.90;;;30.00;27.60;;;28.48;26.38;101263.31;12221100;19;20074;-80
2022/05/16 15:07:40;;;;;;;4.78;1.00;;;29.90;27.60;;;28.54;26.58;101246.44;12219266;19;20499;-81
2022/05/16 15:11:51;;;;;;;;;;;30.10;27.70;;;28.60;27.40;101237.63;12220710;19;20022;-81
2022/05/16 15:15:53;;;;;;;2.17;1.00;;;30.00;28.60;;;28.62;26.55;101227.50;12220998;19;19990;-80
2022/05/16 15:19:55;;;;;;;1.70;1.02;;;30.10;27.80;;;28.72;26.49;101234.44;12223466;19;20022;-80
2022/05/16 15:23:56;;;;;;;0.95;0.95;;;30.10;27.70;;;28.77;26.65;101230.13;12219768;19;20011;-80
2022/05/16 15:27:58;;;;;;;2.10;1.02;;;30.20;27.60;;;28.81;26.28;101236.81;12214371;19;20031;-80
2022/05/16 15:32:02;;;;;;;1.23;0.93;;;30.20;27.90;;;28.85;26.31;101223.81;12222019;19;20074;-80
2022/05/16 15:36:06;;;;;;;1.60;1.10;;;30.30;27.60;;;28.88;25.71;101223.41;12218227;19;20086;-80
2022/05/16 15:40:08;;;;;;;2.10;1.10;;;30.30;27.50;;;28.95;26.08;101226.16;12218817;19;20014;-80
2022/05/16 15:44:10;;;;;;;0.90;0.90;;;30.40;28.00;;;28.87;25.89;101229.81;12217848;19;20022;-81
2022/05/16 15:48:14;;;;;;;1.70;1.10;;;30.40;27.90;;;28.74;26.53;101222.47;12213724;19;20014;-81
2022/05/16 15:52:18;;;;;;;2.13;1.10;;;30.30;27.80;;;28.72;26.68;101234.44;12215539;19;20011;-80
2022/05/16 15:56:19;;;;;;;2.30;1.60;;;30.30;28.10;;;28.43;26.53;101199.41;12218661;19;20279;-80
2022/05/16 16:00:22;;;;;;;3.03;1.05;;;30.30;28.10;;;28.30;26.53;101195.69;12216880;19;20026;-81
2022/05/16 16:08:44;;;;;;;1.10;0.85;;;29.90;28.00;;;28.09;26.77;101202.72;12220056;19;20078;-80
2022/05/16 16:12:45;;;;;;;2.25;0.82;;;29.80;28.10;;;28.00;26.60;101212.75;12225092;19;20006;-80
2022/05/16 16:16:49;;;;;;;2.20;1.25;;;29.70;28.20;;;27.80;26.67;101188.31;12222174;19;20011;-80
2022/05/16 16:20:51;;;;;;;1.67;0.95;;;29.50;28.20;;;27.85;26.90;101197.66;12223733;19;20027;-82
2022/05/16 16:24:53;;;;;;;1.40;1.00;;;29.40;28.20;;;27.70;26.87;101189.59;12221714;19;20090;-80
2022/05/16 16:28:54;;;;;;;1.52;1.30;;;29.30;28.30;;;27.59;26.99;101178.28;12217647;19;20010;-82
2022/05/16 16:32:56;;;;;;;3.58;1.02;;;29.20;28.30;;;27.61;27.05;101196.91;12230056;19;20022;-80
2022/05/16 16:36:57;;;;;;;2.67;0.90;;;29.20;28.40;;;27.59;27.06;101199.75;12235825;19;20372;-81
2022/05/16 16:41:01;;;;;;;0.98;0.60;;;29.10;28.50;;;27.51;27.01;101190.97;12236619;19;20018;-80
2022/05/16 16:45:06;;;;;;;2.55;1.00;;;29.00;28.40;;;27.35;27.23;101179.41;12229657;19;20637;-80
2022/05/16 16:49:08;;;;;;;1.25;1.00;;;29.00;28.50;;;27.40;27.14;101194.94;12231390;19;20025;-80
2022/05/16 16:57:39;;;;;;;1.83;0.98;;;28.90;28.60;;;27.22;27.44;101192.63;12233801;19;20099;-80
2022/05/16 17:01:41;;;;;;;1.85;0.95;;;28.80;28.60;;;27.22;27.61;101202.50;12236370;19;20014;-81
2022/05/16 17:05:43;;;;;;;2.95;1.42;;;28.70;28.70;;;27.16;27.56;101193.31;12231947;19;20018;-80
2022/05/16 17:09:45;;;;;;;1.15;1.05;;;28.70;28.80;;;27.08;27.78;101196.06;12234388;19;20038;-80
2022/05/16 17:13:46;;;;;;;3.60;1.00;;;28.60;28.80;;;26.95;27.53;101182.44;12231670;19;20074;-80
2022/05/16 17:17:49;;;;;;;1.88;0.95;;;28.50;28.80;;;26.94;27.75;101192.34;12232048;19;20082;-80
2022/05/16 17:21:50;;;;;;;1.08;0.95;;;28.50;28.90;;;26.85;27.81;101193.44;12231966;19;20022;-80
2022/05/16 17:25:52;;;;;;;2.70;1.30;;;28.40;29.00;;;26.77;27.94;101197.00;12234136;19;20014;-79
2022/05/16 17:29:54;;;;;;;2.55;1.20;;;28.40;29.00;;;26.67;28.04;101193.72;12233963;19;20010;-80
2022/05/16 17:33:55;;;;;;;3.75;1.10;;;28.30;29.30;;;26.59;28.23;101193.78;12228404;19;20372;-79
2022/05/16 17:37:57;;;;;;;1.00;1.00;;;28.20;29.20;;;26.52;28.33;101192.81;12230305;19;20648;-80
2022/05/16 17:41:58;;;;;;;1.35;1.10;;;28.10;29.10;;;26.31;28.16;101185.41;12229403;19;20522;-80
2022/05/16 17:46:00;;;;;;;3.10;1.10;;;27.90;29.10;;;26.36;28.51;101210.66;12230664;19;20035;-81
2022/05/16 17:50:02;;;;;;;1.65;0.90;;;27.90;29.30;;;26.26;28.21;101197.47;12231577;19;20102;-79
2022/05/16 17:54:13;;;;;;;2.22;1.20;;;27.90;29.40;;;26.04;28.27;101175.00;12226837;19;20022;-79
2022/05/16 17:58:15;;;;;;;2.63;1.05;;;27.70;29.30;;;26.09;28.15;101193.22;12230730;19;20126;-79
2022/05/16 18:02:22;;;;;;;1.30;0.90;;;27.70;29.30;;;26.04;28.47;101201.78;12226819;19;20019;-79
2022/05/16 18:06:23;;;;;;;2.50;1.35;;;27.70;29.40;;;26.01;28.58;101204.81;12228074;19;20015;-79